createdAt,value
2023-01-08T00:00:14.977Z,22.6
2023-01-08T00:05:40.172Z,22.5
2023-01-08T00:10:47.308Z,22.8
2023-01-08T00:16:10.356Z,23.3
2023-01-08T00:21:33.441Z,23.8
2023-01-08T00:26:56.034Z,24.1
2023-01-08T00:32:03.402Z,23.9
2023-01-08T00:37:27.020Z,23.7
2023-01-08T00:42:49.773Z,24.1
2023-01-08T00:48:12.900Z,24.1
2023-01-08T00:53:21.286Z,23.8
2023-01-08T00:58:43.994Z,23.3
2023-01-08T01:03:51.802Z,23
2023-01-08T01:09:16.198Z,22.8
2023-01-08T01:14:38.866Z,22.7
2023-01-08T01:19:46.615Z,23
2023-01-08T01:25:10.735Z,23.6
2023-01-08T01:30:33.612Z,24
2023-01-08T01:35:40.948Z,23.9
2023-01-08T01:41:04.914Z,23.4
2023-01-08T01:46:11.858Z,23
2023-01-08T01:51:34.811Z,22.8
2023-01-08T01:56:58.968Z,22.6
2023-01-08T02:02:22.993Z,22.7
2023-01-08T02:07:45.967Z,23.1
2023-01-08T02:13:10.367Z,23.6
2023-01-08T02:18:33.369Z,24.1
2023-01-08T02:23:40.466Z,23.8
2023-01-08T02:29:04.198Z,23.4
2023-01-08T02:34:26.540Z,23
2023-01-08T02:39:33.696Z,22.8
2023-01-08T02:44:42.378Z,22.6
2023-01-08T02:50:04.961Z,22.6
2023-01-08T02:55:27.997Z,23
2023-01-08T03:00:51.759Z,23.5
2023-01-08T03:06:16.315Z,23.6
2023-01-08T03:11:38.831Z,23.4
2023-01-08T03:17:03.323Z,23.5
2023-01-08T03:22:27.702Z,23.9
2023-01-08T03:27:35.375Z,24
2023-01-08T03:32:59.721Z,23.6
2023-01-08T03:38:21.463Z,23.1
2023-01-08T03:43:28.251Z,22.9
2023-01-08T03:48:52.265Z,22.6
2023-01-08T03:54:14.903Z,22.6
2023-01-08T03:59:37.407Z,22.9
2023-01-08T04:05:03.027Z,23.4
2023-01-08T04:10:24.902Z,23.9
2023-01-08T04:15:47.766Z,23.8
2023-01-08T04:21:12.504Z,23.4
2023-01-08T04:26:18.621Z,22.9
2023-01-08T04:31:41.068Z,22.8
2023-01-08T04:37:05.279Z,22.5
2023-01-08T04:42:11.800Z,22.6
2023-01-08T04:47:34.149Z,22.9
2023-01-08T04:52:58.220Z,23.5
2023-01-08T04:58:20.463Z,23.9
2023-01-08T05:03:45.075Z,23.9
2023-01-08T05:09:10.867Z,23.5
2023-01-08T05:14:18.359Z,23
2023-01-08T05:19:41.512Z,22.8
2023-01-08T05:25:08.009Z,22.5
2023-01-08T05:30:31.009Z,22.5
2023-01-08T05:35:53.952Z,22.9
2023-01-08T05:41:02.562Z,23.1
2023-01-08T05:46:09.609Z,22.9
2023-01-08T05:51:32.295Z,23.1
2023-01-08T05:56:59.312Z,23.5
2023-01-08T06:02:21.807Z,23.9
2023-01-08T06:07:44.389Z,23.8
2023-01-08T06:13:08.114Z,23.3
2023-01-08T06:18:31.021Z,22.8
2023-01-08T06:23:07.811Z,22.6
2023-01-08T06:27:44.332Z,22.4
2023-01-08T06:33:07.241Z,22.4
2023-01-08T06:38:30.059Z,22.8
2023-01-08T06:43:40.480Z,23.4
2023-01-08T06:49:03.726Z,23.8
2023-01-08T06:54:13.485Z,23.9
2023-01-08T06:59:55.475Z,23.4
2023-01-08T07:05:19.860Z,22.9
2023-01-08T07:10:42.934Z,22.6
2023-01-08T07:16:06.627Z,22.4
2023-01-08T07:21:30.013Z,22.5
2023-01-08T07:26:52.767Z,22.9
2023-01-08T07:32:09.673Z,23.4
2023-01-08T07:37:36.123Z,23.9
2023-01-08T07:42:59.111Z,23.8
2023-01-08T07:48:22.733Z,23.3
2023-01-08T07:53:30.022Z,22.9
2023-01-08T07:58:37.178Z,22.6
2023-01-08T08:04:03.882Z,22.4
2023-01-08T08:09:26.734Z,22.6
2023-01-08T08:14:49.317Z,23
2023-01-08T08:20:12.995Z,23.1
2023-01-08T08:25:36.071Z,22.9
2023-01-08T08:30:59.203Z,23.3
2023-01-08T08:36:22.727Z,23.1
2023-01-08T08:41:45.614Z,22.8
2023-01-08T08:47:10.929Z,22.4
2023-01-08T08:52:34.377Z,22.3
2023-01-08T08:57:58.794Z,22.1
2023-01-08T09:03:23.773Z,22.1
2023-01-08T09:08:47.731Z,21.9
2023-01-08T09:14:10.584Z,22.1
2023-01-08T09:19:33.047Z,22.4
2023-01-08T09:24:56.705Z,22.7
2023-01-08T09:30:19.491Z,22.4
2023-01-08T09:35:42.376Z,22.2
2023-01-08T09:40:54.699Z,22
2023-01-08T09:46:19.641Z,21.9
2023-01-08T09:51:26.867Z,22
2023-01-08T09:57:01.412Z,22.4
2023-01-08T10:02:25.350Z,22.6
2023-01-08T10:07:48.320Z,22.3
2023-01-08T10:13:12.105Z,22.2
2023-01-08T10:18:35.714Z,21.9
2023-01-08T10:23:58.125Z,21.8
2023-01-08T10:29:08.158Z,21.6
2023-01-08T10:34:32.317Z,21.7
2023-01-08T10:39:57.160Z,22
2023-01-08T10:45:22.668Z,22.5
2023-01-08T10:50:45.609Z,22.3
2023-01-08T10:55:36.660Z,22
2023-01-08T11:00:45.777Z,21.8
2023-01-08T11:06:08.468Z,21.7
2023-01-08T11:11:15.839Z,21.8
2023-01-08T11:16:39.095Z,22.1
2023-01-08T11:22:02.380Z,22.4
2023-01-08T11:27:26.848Z,22.1
2023-01-08T11:32:50.159Z,22
2023-01-08T11:38:13.010Z,21.9
2023-01-08T11:43:38.584Z,21.9
2023-01-08T11:48:48.570Z,21.8
2023-01-08T11:53:39.980Z,21.9
2023-01-08T11:59:01.830Z,22.4
2023-01-08T12:04:25.419Z,22.1
2023-01-08T12:09:47.382Z,22
2023-01-08T12:14:54.078Z,21.9
2023-01-08T12:20:17.489Z,21.8
2023-01-08T12:25:39.317Z,21.8
2023-01-08T12:31:15.569Z,21.9
2023-01-08T12:36:49.904Z,22.4
2023-01-08T12:42:12.906Z,22.1
2023-01-08T12:47:46.548Z,21.9
2023-01-08T12:53:09.294Z,21.9
2023-01-08T12:58:31.910Z,21.8
2023-01-08T13:03:40.705Z,21.8
2023-01-08T13:09:03.638Z,21.9
2023-01-08T13:14:27.467Z,22.4
2023-01-08T13:19:34.507Z,22.1
2023-01-08T13:24:57.447Z,22
2023-01-08T13:29:48.453Z,21.9
2023-01-08T13:35:10.996Z,21.8
2023-01-08T13:40:50.127Z,21.8
2023-01-08T13:45:58.538Z,21.9
2023-01-08T13:50:50.242Z,22.4
2023-01-08T13:55:57.531Z,22.3
2023-01-08T14:01:04.819Z,22.1
2023-01-08T14:06:12.903Z,21.9
2023-01-08T14:11:36.052Z,21.9
2023-01-08T14:16:59.125Z,21.8
2023-01-08T14:22:21.883Z,22
2023-01-08T14:27:44.746Z,22.4
2023-01-08T14:33:07.721Z,22.1
2023-01-08T14:38:30.055Z,21.9
2023-01-08T14:43:38.074Z,21.9
2023-01-08T14:49:10.217Z,22
2023-01-08T14:54:32.861Z,22.5
2023-01-08T14:59:55.913Z,22.2
2023-01-08T15:05:21.619Z,22
2023-01-08T15:10:43.905Z,21.9
2023-01-08T15:16:06.915Z,22.1
2023-01-08T15:21:29.647Z,22.5
2023-01-08T15:26:36.750Z,22.2
2023-01-08T15:31:59.765Z,22
2023-01-08T15:36:20.401Z,21.9
2023-01-08T15:41:30.097Z,21.9
2023-01-08T15:46:38.807Z,21.8
2023-01-08T15:52:02.163Z,21.9
2023-01-08T15:57:25.181Z,22.3
2023-01-08T16:02:33.388Z,22.2
2023-01-08T16:07:41.010Z,22
2023-01-08T16:12:32.291Z,21.8
2023-01-08T16:17:40.806Z,21.7
2023-01-08T16:23:03.721Z,21.6
2023-01-08T16:28:25.836Z,21.5
2023-01-08T16:33:51.235Z,21.4
2023-01-08T16:39:14.241Z,21.4
2023-01-08T16:44:21.601Z,21.7
2023-01-08T16:49:44.191Z,22.3
2023-01-08T16:54:36.284Z,22
2023-01-08T17:00:12.574Z,21.8
2023-01-08T17:05:23.213Z,21.6
2023-01-08T17:10:15.519Z,21.5
2023-01-08T17:15:37.798Z,21.3
2023-01-08T17:21:00.768Z,21.3
2023-01-08T17:31:15.558Z,21.3
2023-01-08T17:36:38.861Z,21.6
2023-01-08T17:42:06.060Z,21.9
2023-01-08T17:47:29.609Z,22.1
2023-01-08T17:52:51.736Z,22.3
2023-01-08T17:57:59.752Z,21.9
2023-01-08T18:03:25.012Z,21.7
2023-01-08T18:08:48.438Z,21.5
2023-01-08T18:14:11.662Z,21.3
2023-01-08T18:19:02.964Z,21.2
2023-01-08T18:24:10.712Z,21.2
2023-01-08T18:34:56.056Z,21.4
2023-01-08T18:40:03.315Z,21.9
2023-01-08T18:45:26.880Z,22.1
2023-01-08T18:50:50.232Z,21.8
2023-01-08T18:55:58.796Z,21.5
2023-01-08T19:01:06.636Z,21.4
2023-01-08T19:06:14.803Z,21.2
2023-01-08T19:16:48.331Z,21.1
2023-01-08T19:27:04.945Z,21.4
2023-01-08T19:32:33.241Z,22
2023-01-08T19:37:55.871Z,22
2023-01-08T19:43:02.826Z,21.8
2023-01-08T19:48:28.955Z,21.4
2023-01-08T19:53:54.160Z,21.3
2023-01-08T20:09:50.717Z,21.3
2023-01-08T20:15:05.131Z,21.9
2023-01-08T20:20:37.758Z,22.1
2023-01-08T20:25:50.704Z,21.9
2023-01-08T20:31:14.136Z,21.8
2023-01-08T20:36:08.157Z,22.3
2023-01-08T20:41:15.018Z,22.8
2023-01-08T20:46:52.386Z,23.3
2023-01-08T20:52:36.239Z,23.1
2023-01-08T20:57:58.611Z,22.9
2023-01-08T21:02:34.473Z,23.3
2023-01-08T21:07:42.176Z,23.6
2023-01-08T21:13:04.551Z,23.4
2023-01-08T21:17:41.096Z,22.9
2023-01-08T21:22:49.124Z,23
2023-01-08T21:27:39.577Z,23.6
2023-01-08T21:32:31.048Z,23.8
2023-01-08T21:37:38.079Z,23.4
2023-01-08T21:42:45.078Z,23
2023-01-08T21:47:52.317Z,22.6
2023-01-08T21:53:00.049Z,22.5
2023-01-08T21:58:09.012Z,22.3
2023-01-08T22:03:16.042Z,22.5
2023-01-08T22:08:23.110Z,23
2023-01-08T22:13:46.281Z,23.5
2023-01-08T22:19:09.106Z,23.9
2023-01-08T22:24:16.239Z,23.6
2023-01-08T22:29:23.820Z,23.1
2023-01-08T22:34:46.694Z,23.4
2023-01-08T22:39:55.698Z,23.9
2023-01-08T22:45:21.119Z,24.3
2023-01-08T22:50:28.662Z,24
2023-01-08T22:55:51.211Z,23.8
2023-01-08T23:01:13.939Z,24.1
2023-01-08T23:06:36.682Z,24.1
2023-01-08T23:11:44.233Z,23.8
2023-01-08T23:16:21.027Z,23.3
2023-01-08T23:21:34.314Z,23
2023-01-08T23:26:57.530Z,22.8
2023-01-08T23:32:20.889Z,22.8
2023-01-08T23:38:01.852Z,23
2023-01-08T23:43:08.072Z,23.6
2023-01-08T23:48:31.317Z,24.1
2023-01-08T23:53:37.732Z,23.9
2023-01-08T23:59:00.184Z,23.4
